CheckWX is a tool to help pilots better visualize weather data.  It is not intended as a substitute for an official pre-flight weather briefing.

21:05:22 UTC

KCAV METAR
Clarion Municipal Airport
Clarion, Iowa, USA
Current

10 mins ago

KCAV 232055Z AUTO 03019KT 1 1/4SM BR OVC003 00/00 A2960 RMK AO2 PWINO
Observed
Feb-23 @ 20:55 UTC
Wind
  • 030° at 19 KTS
Visibility
1 1/4 SM
Flight Rules
LIFR
Conditions
Mist
Cloud Levels
  • Overcast at 300' AGL
Temperature
C / 32°F
Dewpoint
C / 32°F
Humidity
100%
Altimeter
29.6" Hg
Pressure
1002.42 hPa
Previous

30 mins ago

KCAV 232035Z AUTO 04016KT 1 1/4SM BR OVC003 00/00 A2962 RMK AO2 PWINO
Observed
Feb-23 @ 20:35 UTC
Wind
  • 040° at 16 KTS
Visibility
1 1/4 SM
Flight Rules
LIFR
Conditions
Mist
Cloud Levels
  • Overcast at 300' AGL
Temperature
C / 32°F
Dewpoint
C / 32°F
Humidity
100%
Altimeter
29.62" Hg
Pressure
1003.02 hPa
Previous

50 mins ago

KCAV 232015Z AUTO 04015KT 1 1/2SM BR OVC003 00/00 A2965 RMK AO2 PWINO
Observed
Feb-23 @ 20:15 UTC
Wind
  • 040° at 15 KTS
Visibility
1 1/2 SM
Flight Rules
LIFR
Conditions
Mist
Cloud Levels
  • Overcast at 300' AGL
Temperature
C / 32°F
Dewpoint
C / 32°F
Humidity
100%
Altimeter
29.65" Hg
Pressure
1004.02 hPa